Accueil
METAR-TAF:

METAR-TAF

Aéroports :

Hazen, Dakota du Nord, États-Unis

latitude: 47-17-24N, longitude: 101-34-52W, altitude: 553 m

Observation

Le bulletin a été fait il y a 22 minutes, à 21:15 UTC
Vent 14 kt de nord
Température -1°C
Humidité 100%
Pression 1017 hPa
Visibilité: 16.1 km
Nuages épars à une hauteur de 1000 ft
Ciel couvert à une hauteur de 1900 ft

METAR: KHZE 202115Z AUTO 36014KT 10SM SCT010 OVC019 M01/M01 A3003 RMK AO2

Heure: 15:37 (21:37 UTC)


TAF: absent

Observations et prévisions météorologiques de plus de 4000 aéroports (messages METAR et TAF).

Les stations disponibles sont représentées par des disques jaunes et rouges sur la carte.

Passer la souris dessus pour voir le nom de la station.

Cliquer dessus pour voir les observations et prévisions météorologiques.

Pour changer de carte: cliquez sur les boutons verts avec une croix noire pour zoomer, sur le bouton vert avec un tiret pour effectuer un zoom arrière, ou sur les flèches vertes pour les cartes adjacentes.


METAR-TAF: